createdAt,value
2019-04-22T00:04:33.856Z,4.73
2019-04-22T00:09:46.143Z,4.77
2019-04-22T00:14:33.767Z,3.80
2019-04-22T00:19:35.989Z,3.80
2019-04-22T00:24:32.107Z,3.90
2019-04-22T00:34:25.463Z,3.50
2019-04-22T00:39:28.371Z,3.50
2019-04-22T00:44:29.826Z,4.13
2019-04-22T00:54:05.953Z,3.80
2019-04-22T00:59:08.462Z,4.77
2019-04-22T01:13:55.299Z,4.90
2019-04-22T01:18:55.175Z,4.27
2019-04-22T01:23:49.089Z,4.30
2019-04-22T01:28:43.403Z,4.20
2019-04-22T01:33:33.091Z,4.57
2019-04-22T01:38:47.711Z,4.47
2019-04-22T01:43:52.118Z,3.87
2019-04-22T01:48:39.504Z,3.90
2019-04-22T01:53:42.388Z,3.73
2019-04-22T01:58:31.169Z,4.30
2019-04-22T02:03:36.020Z,4.33
2019-04-22T02:08:33.122Z,4.10
2019-04-22T02:13:21.958Z,4.40
2019-04-22T02:18:26.095Z,4.43
2019-04-22T02:23:47.302Z,4.63
2019-04-22T02:28:32.587Z,4.57
2019-04-22T02:38:34.128Z,4.27
2019-04-22T02:43:41.110Z,4.50
2019-04-22T02:48:26.642Z,4.37
2019-04-22T02:53:14.447Z,4.80
2019-04-22T02:58:07.995Z,4.40
2019-04-22T03:08:06.764Z,3.90
2019-04-22T03:12:51.961Z,3.57
2019-04-22T03:17:52.115Z,4.30
2019-04-22T03:22:47.031Z,4.27
2019-04-22T03:27:47.834Z,4.50
2019-04-22T03:37:49.390Z,4.37
2019-04-22T03:42:50.247Z,3.70
2019-04-22T03:47:41.254Z,3.90
2019-04-22T03:57:44.666Z,3.90
2019-04-22T04:02:28.992Z,3.97
2019-04-22T04:07:38.335Z,3.90
2019-04-22T04:12:25.928Z,3.57
2019-04-22T04:17:29.361Z,3.93
2019-04-22T04:22:27.014Z,4.30
2019-04-22T04:27:18.301Z,3.87
2019-04-22T04:32:18.778Z,4.23
2019-04-22T04:37:32.738Z,4.57
2019-04-22T04:42:09.459Z,3.80
2019-04-22T04:51:51.291Z,4.20
2019-04-22T04:56:39.909Z,4.20
2019-04-22T05:01:46.758Z,4.50
2019-04-22T05:06:43.206Z,4.17
2019-04-22T05:21:36.358Z,4.40
2019-04-22T05:26:26.089Z,4.43
2019-04-22T05:31:15.804Z,4.30
2019-04-22T05:36:13.082Z,4.70
2019-04-22T05:41:02.758Z,4.80
2019-04-22T05:46:00.750Z,5.60
2019-04-22T05:50:59.847Z,7.83
2019-04-22T05:55:56.892Z,7.67
2019-04-22T06:01:29.108Z,7.87
2019-04-22T06:06:00.879Z,7.67
2019-04-22T06:11:05.741Z,7.07
2019-04-22T06:15:59.057Z,6.20
2019-04-22T06:20:59.419Z,4.83
2019-04-22T06:30:57.544Z,4.10
2019-04-22T06:35:54.590Z,3.97
2019-04-22T06:40:46.521Z,4.30
2019-04-22T06:45:41.382Z,3.73
2019-04-22T06:50:41.643Z,3.67
2019-04-22T06:55:41.307Z,4.50
2019-04-22T07:00:38.098Z,3.53
2019-04-22T07:05:32.803Z,4.13
2019-04-22T07:10:35.247Z,3.60
2019-04-22T07:15:42.147Z,3.80
2019-04-22T07:20:27.245Z,3.90
2019-04-22T07:25:15.852Z,3.67
2019-04-22T07:35:19.536Z,4.20
2019-04-22T07:40:11.938Z,4.30
2019-04-22T07:45:08.389Z,4.00
2019-04-22T07:50:05.795Z,4.13
2019-04-22T07:54:56.935Z,3.60
2019-04-22T07:59:57.316Z,4.13
2019-04-22T08:09:59.746Z,3.87
2019-04-22T08:14:50.430Z,4.10
2019-04-22T08:19:44.730Z,3.90
2019-04-22T08:29:37.706Z,4.03
2019-04-22T08:34:29.541Z,3.70
2019-04-22T08:39:25.612Z,4.13
2019-04-22T08:44:37.743Z,3.53
2019-04-22T08:49:16.143Z,3.80
2019-04-22T08:54:18.310Z,3.63
2019-04-22T08:59:22.183Z,4.07
2019-04-22T09:04:05.721Z,3.50
2019-04-22T09:09:09.104Z,3.50
2019-04-22T09:14:04.500Z,3.23
2019-04-22T09:19:01.993Z,3.63
2019-04-22T09:24:02.268Z,3.45
2019-04-22T09:28:54.887Z,3.65
2019-04-22T09:33:43.335Z,3.80
2019-04-22T09:38:41.022Z,3.37
2019-04-22T09:48:40.645Z,3.00
2019-04-22T09:53:39.148Z,3.77
2019-04-22T09:58:31.686Z,3.08
2019-04-22T10:03:25.913Z,3.27
2019-04-22T10:08:24.432Z,2.85
2019-04-22T10:13:18.716Z,3.15
2019-04-22T10:18:20.226Z,3.02
2019-04-22T10:23:17.705Z,3.12
2019-04-22T10:28:09.013Z,2.52
2019-04-22T10:33:01.429Z,2.35
2019-04-22T10:37:34.268Z,2.80
2019-04-22T10:42:31.257Z,2.70
2019-04-22T10:47:27.882Z,2.50
2019-04-22T10:52:23.695Z,2.27
2019-04-22T10:57:20.039Z,2.30
2019-04-22T11:02:14.812Z,2.40
2019-04-22T11:07:12.740Z,2.83
2019-04-22T11:12:13.058Z,2.40
2019-04-22T11:17:05.312Z,2.65
2019-04-22T11:22:07.720Z,2.20
2019-04-22T11:26:55.120Z,2.35
2019-04-22T11:31:50.526Z,2.40
2019-04-22T11:36:45.388Z,2.30
2019-04-22T11:41:40.311Z,2.30
2019-04-22T11:46:35.655Z,2.50
2019-04-22T11:51:31.805Z,2.50
2019-04-22T11:56:27.150Z,2.20
2019-04-22T12:01:22.083Z,2.10
2019-04-22T12:06:18.021Z,2.25
2019-04-22T12:11:13.702Z,2.30
2019-04-22T12:16:09.414Z,2.45
2019-04-22T12:21:05.422Z,2.77
2019-04-22T12:26:05.812Z,2.40
2019-04-22T12:30:57.404Z,2.25
2019-04-22T12:35:52.799Z,2.50
2019-04-22T12:40:55.297Z,2.30
2019-04-22T12:45:44.951Z,2.35
2019-04-22T12:50:43.442Z,2.12
2019-04-22T12:55:35.935Z,2.00
2019-04-22T13:00:32.320Z,2.30
2019-04-22T13:05:27.080Z,2.30
2019-04-22T13:10:24.072Z,2.40
2019-04-22T13:15:22.383Z,2.37
2019-04-22T13:20:19.826Z,2.20
2019-04-22T13:25:15.642Z,2.20
2019-04-22T13:30:14.688Z,2.10
2019-04-22T13:35:11.091Z,2.30
2019-04-22T13:40:08.641Z,2.35
2019-04-22T13:45:04.917Z,2.40
2019-04-22T13:50:36.515Z,2.17
2019-04-22T13:55:30.227Z,2.00
2019-04-22T13:59:56.283Z,2.22
2019-04-22T14:04:50.627Z,2.52
2019-04-22T14:09:46.553Z,1.80
2019-04-22T14:14:42.817Z,2.10
2019-04-22T14:19:38.975Z,2.20
2019-04-22T14:24:34.489Z,2.20
2019-04-22T14:29:29.473Z,2.30
2019-04-22T14:34:24.321Z,2.52
2019-04-22T14:39:19.862Z,2.25
2019-04-22T14:49:40.016Z,2.30
2019-04-22T14:54:22.657Z,2.15
2019-04-22T14:59:04.999Z,2.42
2019-04-22T15:04:00.782Z,2.70
2019-04-22T15:08:58.006Z,2.15
2019-04-22T15:13:53.474Z,2.17
2019-04-22T15:18:53.791Z,2.60
2019-04-22T15:23:48.724Z,2.42
2019-04-22T15:28:43.329Z,2.45
2019-04-22T15:33:39.272Z,2.33
2019-04-22T15:38:34.314Z,2.58
2019-04-22T15:43:31.249Z,2.60
2019-04-22T15:48:25.215Z,2.98
2019-04-22T15:53:20.095Z,2.95
2019-04-22T15:58:15.470Z,2.55
2019-04-22T16:03:12.484Z,2.72
2019-04-22T16:08:06.836Z,3.60
2019-04-22T16:13:09.366Z,3.00
2019-04-22T16:18:01.125Z,2.80
2019-04-22T16:22:59.309Z,2.70
2019-04-22T16:27:54.513Z,2.60
2019-04-22T16:32:51.674Z,2.83
2019-04-22T16:37:46.630Z,2.95
2019-04-22T16:42:48.881Z,2.70
2019-04-22T16:47:37.598Z,2.52
2019-04-22T16:52:32.308Z,2.90
2019-04-22T16:57:28.125Z,2.37
2019-04-22T17:02:24.776Z,3.25
2019-04-22T17:07:20.519Z,3.00
2019-04-22T17:12:16.165Z,2.85
2019-04-22T17:17:12.713Z,3.00
2019-04-22T17:22:07.924Z,2.92
2019-04-22T17:27:02.578Z,2.60
2019-04-22T17:32:05.540Z,2.22
2019-04-22T17:36:54.973Z,2.90
2019-04-22T17:42:08.281Z,3.22
2019-04-22T17:46:58.236Z,3.20
2019-04-22T17:57:19.313Z,3.10
2019-04-22T18:02:11.522Z,3.42
2019-04-22T18:07:18.455Z,3.30
2019-04-22T18:12:11.601Z,3.72
2019-04-22T18:17:08.409Z,4.67
2019-04-22T18:21:51.696Z,4.77
2019-04-22T18:27:03.274Z,3.93
2019-04-22T18:31:43.892Z,4.63
2019-04-22T18:36:45.777Z,4.10
2019-04-22T18:41:46.753Z,4.30
2019-04-22T18:46:43.053Z,3.90
2019-04-22T18:51:43.846Z,4.00
2019-04-22T18:56:52.526Z,4.60
2019-04-22T19:01:31.835Z,4.07
2019-04-22T19:06:52.287Z,4.93
2019-04-22T19:11:55.682Z,4.63
2019-04-22T19:16:39.740Z,4.57
2019-04-22T19:21:39.466Z,4.27
2019-04-22T19:26:47.837Z,5.10
2019-04-22T19:31:29.836Z,5.30
2019-04-22T19:36:25.752Z,4.70
2019-04-22T19:41:30.501Z,5.33
2019-04-22T19:46:19.467Z,4.33
2019-04-22T19:51:24.230Z,4.80
2019-04-22T19:56:07.105Z,5.20
2019-04-22T20:01:14.791Z,5.40
2019-04-22T20:06:35.276Z,5.40
2019-04-22T20:11:31.780Z,5.57
2019-04-22T20:16:25.204Z,5.83
2019-04-22T20:21:28.343Z,6.13
2019-04-22T20:26:16.183Z,6.10
2019-04-22T20:31:19.299Z,6.53
2019-04-22T20:36:36.516Z,6.33
2019-04-22T20:41:07.222Z,4.77
2019-04-22T20:46:11.281Z,5.90
2019-04-22T20:51:09.959Z,5.73
2019-04-22T20:56:01.144Z,5.57
2019-04-22T21:00:50.557Z,6.27
2019-04-22T21:05:44.509Z,5.60
2019-04-22T21:10:44.057Z,5.60
2019-04-22T21:15:49.280Z,5.43
2019-04-22T21:20:43.340Z,5.83
2019-04-22T21:25:30.775Z,5.73
2019-04-22T21:30:34.269Z,5.73
2019-04-22T21:35:50.313Z,6.30
2019-04-22T21:40:30.158Z,6.23
2019-04-22T21:45:23.947Z,5.50
2019-04-22T21:50:48.077Z,4.63
2019-04-22T21:55:45.243Z,4.90
2019-04-22T22:00:31.069Z,4.73
2019-04-22T22:05:10.094Z,4.47
2019-04-22T22:10:09.163Z,5.47
2019-04-22T22:15:09.779Z,5.60
2019-04-22T22:20:03.498Z,4.00
2019-04-22T22:25:04.296Z,4.80
2019-04-22T22:30:15.179Z,4.43
2019-04-22T22:34:58.413Z,4.10
2019-04-22T22:39:39.222Z,4.30
2019-04-22T22:44:33.335Z,4.33
2019-04-22T22:49:50.274Z,4.73
2019-04-22T22:54:39.273Z,4.87
2019-04-22T22:59:40.295Z,5.50
2019-04-22T23:04:37.166Z,5.90
2019-04-22T23:09:33.415Z,4.30
2019-04-22T23:14:26.572Z,5.10
2019-04-22T23:19:04.436Z,5.63
2019-04-22T23:24:17.338Z,6.30
2019-04-22T23:29:10.374Z,6.00
2019-04-22T23:34:14.309Z,4.90
2019-04-22T23:39:15.719Z,5.17
2019-04-22T23:44:13.494Z,5.30
2019-04-22T23:49:04.413Z,5.10
2019-04-22T23:54:11.069Z,4.63
2019-04-22T23:59:03.005Z,4.70
